LFLP Airport Information

Runway Information
Runway 04 Length 5348 ft width 98 ft
Elevation 1489 ft Threshold 820 ft Heading 39
Runway 22 Length 5348 ft Width 98 ft
Elevation 1516 ft Threshold 755 ft Heading 219
Airport Frequencies
Type AFIS Name INFO Frequency 118.2 MHZ
Type APP Name CHAMBERY A Frequency 123.7 MHZ
Type TWR Name ANNECY TWR Frequency 118.2 MHZ
Airport Navaids
Airport Weather Information & NOTAM
ADDS - METARS form results

(0552 UTC 20 February 2019)
Data provider http://aviationweather.gov/metar/data/
 
METAR text: LFLP 200530Z AUTO VRB02KT CAVOK M01/M03 Q1023 NOSIG
Conditions at: LFLP (ANNECY/MEYTHET , FR) observed 0530 UTC 20 February 2019
Temperature: -1.0°C (30°F)
Dewpoint: -3.0°C (27°F) [RH = 86%]
Pressure (altimeter): 30.21 inches Hg (1023.0 mb)
Winds: variable direction winds at 2 MPH (2 knots; 1.0 m/s)
Visibility: 6 or more miles (10+ km)
Ceiling: ceiling and visibility are OK
Clouds: unknown
Weather: no significant weather observed at this time

METAR text: LFLP 200500Z AUTO 04004KT 020V080 CAVOK M01/M03 Q1023 NOSIG
Conditions at: LFLP (ANNECY/MEYTHET , FR) observed 0500 UTC 20 February 2019
Temperature: -1.0°C (30°F)
Dewpoint: -3.0°C (27°F) [RH = 86%]
Pressure (altimeter): 30.21 inches Hg (1023.0 mb)
Winds: from the NE (40 degrees) at 5 MPH (4 knots; 2.1 m/s)
Visibility: 6 or more miles (10+ km)
Ceiling: ceiling and visibility are OK
Clouds: unknown
Weather: no significant weather observed at this time

Forecast for: LFLP (ANNECY/MEYTHET , FR)
Text: TAF LFLP 200200Z 2003/2103 VRB03KT CAVOK
Forecast period: 0300 UTC 20 February 2019 to 0300 UTC 21 February 2019
Forecast type: FROM: standard forecast or significant change
Winds: variable direction winds at 3 MPH (3 knots; 1.5 m/s)
Visibility: 6 or more miles 10+ km)
Ceiling: unknown
Clouds: missing
Weather: NSW  (no significant weather)